createdAt,value
2019-03-22T00:00:21.722Z,0.00
2019-03-22T00:01:20.786Z,0.00
2019-03-22T00:02:21.061Z,0.00
2019-03-22T00:03:20.767Z,0.00
2019-03-22T00:04:20.760Z,0.00
2019-03-22T00:05:20.746Z,0.00
2019-03-22T00:06:20.765Z,0.00
2019-03-22T00:07:20.723Z,0.00
2019-03-22T00:08:20.714Z,0.00
2019-03-22T00:09:20.981Z,0.00
2019-03-22T00:10:20.694Z,0.00
2019-03-22T00:11:20.687Z,0.00
2019-03-22T00:12:20.704Z,0.00
2019-03-22T00:13:20.661Z,0.00
2019-03-22T00:14:20.651Z,0.00
2019-03-22T00:15:20.647Z,0.00
2019-03-22T00:16:20.912Z,0.00
2019-03-22T00:17:20.665Z,0.00
2019-03-22T00:18:20.648Z,0.00
2019-03-22T00:19:20.599Z,0.00
2019-03-22T00:20:20.589Z,0.00
2019-03-22T00:21:20.577Z,0.00
2019-03-22T00:22:20.585Z,0.00
2019-03-22T00:23:20.837Z,0.00
2019-03-22T00:24:20.578Z,0.00
2019-03-22T00:25:20.537Z,0.00
2019-03-22T00:26:20.526Z,0.00
2019-03-22T00:27:20.515Z,0.00
2019-03-22T00:28:20.504Z,0.00
2019-03-22T00:29:20.494Z,0.00
2019-03-22T00:30:20.818Z,0.00
2019-03-22T00:31:20.482Z,0.00
2019-03-22T00:32:20.462Z,0.00
2019-03-22T00:33:20.453Z,0.00
2019-03-22T00:34:20.447Z,0.00
2019-03-22T00:35:20.432Z,0.00
2019-03-22T00:36:20.457Z,0.00
2019-03-22T00:37:20.753Z,0.00
2019-03-22T00:38:20.400Z,0.00
2019-03-22T00:39:20.400Z,0.00
2019-03-22T00:40:20.377Z,0.00
2019-03-22T00:41:20.367Z,0.00
2019-03-22T00:42:20.386Z,0.00
2019-03-22T00:43:20.358Z,0.00
2019-03-22T00:44:20.648Z,0.00
2019-03-22T00:45:20.337Z,0.00
2019-03-22T00:46:20.315Z,0.00
2019-03-22T00:47:20.304Z,0.00
2019-03-22T00:48:20.321Z,0.00
2019-03-22T00:49:20.283Z,0.00
2019-03-22T00:50:20.272Z,0.00
2019-03-22T00:51:20.543Z,0.00
2019-03-22T00:52:20.250Z,0.00
2019-03-22T00:53:20.241Z,0.00
2019-03-22T00:54:20.274Z,0.00
2019-03-22T00:55:20.222Z,0.00
2019-03-22T00:56:20.209Z,0.00
2019-03-22T00:57:28.413Z,0.00
2019-03-22T00:58:21.188Z,0.00
2019-03-22T00:59:20.181Z,0.00
2019-03-22T01:00:20.199Z,0.00
2019-03-22T01:01:20.159Z,0.00
2019-03-22T01:02:20.150Z,0.00
2019-03-22T01:03:20.140Z,0.00
2019-03-22T01:04:20.414Z,0.00
2019-03-22T01:05:20.121Z,0.00
2019-03-22T01:06:20.131Z,0.00
2019-03-22T01:07:20.113Z,0.00
2019-03-22T01:08:20.095Z,0.00
2019-03-22T01:09:20.071Z,0.00
2019-03-22T01:10:20.065Z,0.00
2019-03-22T01:11:20.054Z,0.00
2019-03-22T01:12:20.120Z,0.00
2019-03-22T01:13:20.036Z,0.00
2019-03-22T01:14:20.018Z,0.00
2019-03-22T01:15:20.008Z,0.00
2019-03-22T01:16:20.279Z,0.00
2019-03-22T01:17:19.991Z,0.00
2019-03-22T01:18:20.006Z,0.00
2019-03-22T01:19:19.982Z,0.00
2019-03-22T01:20:19.958Z,0.00
2019-03-22T01:21:19.944Z,0.00
2019-03-22T01:22:20.265Z,0.00
2019-03-22T01:23:19.943Z,0.00
2019-03-22T01:24:19.971Z,0.00
2019-03-22T01:25:19.903Z,0.00
2019-03-22T01:26:19.891Z,0.00
2019-03-22T01:27:19.881Z,0.00
2019-03-22T01:28:19.870Z,0.00
2019-03-22T01:29:20.154Z,0.00
2019-03-22T01:30:19.934Z,0.00
2019-03-22T01:31:19.841Z,0.00
2019-03-22T01:32:19.835Z,0.00
2019-03-22T01:33:19.819Z,0.00
2019-03-22T01:34:19.812Z,0.00
2019-03-22T01:35:19.813Z,0.00
2019-03-22T01:36:20.109Z,0.00
2019-03-22T01:37:19.778Z,0.00
2019-03-22T01:38:19.767Z,0.00
2019-03-22T01:39:19.774Z,0.00
2019-03-22T01:40:19.748Z,0.00
2019-03-22T01:41:19.737Z,0.00
2019-03-22T01:42:19.760Z,0.00
2019-03-22T01:43:19.991Z,0.00
2019-03-22T01:44:19.710Z,0.00
2019-03-22T01:45:19.718Z,0.00
2019-03-22T01:46:19.683Z,0.00
2019-03-22T01:47:19.675Z,0.00
2019-03-22T01:48:19.735Z,0.00
2019-03-22T01:49:19.657Z,0.00
2019-03-22T01:50:19.922Z,0.00
2019-03-22T01:51:19.636Z,0.00
2019-03-22T01:52:19.637Z,0.00
2019-03-22T01:53:20.121Z,0.00
2019-03-22T01:54:19.628Z,0.00
2019-03-22T01:55:19.594Z,0.00
2019-03-22T01:56:19.581Z,0.00
2019-03-22T01:57:19.852Z,0.00
2019-03-22T01:58:19.565Z,0.00
2019-03-22T01:59:19.560Z,0.00
2019-03-22T02:00:19.569Z,0.00
2019-03-22T02:01:19.567Z,0.00
2019-03-22T02:02:19.637Z,0.00
2019-03-22T02:03:19.548Z,0.00
2019-03-22T02:04:19.789Z,0.00
2019-03-22T02:05:19.528Z,0.00
2019-03-22T02:06:19.598Z,0.00
2019-03-22T02:07:19.481Z,0.00
2019-03-22T02:08:19.457Z,0.00
2019-03-22T02:09:19.457Z,0.00
2019-03-22T02:10:19.467Z,0.00
2019-03-22T02:11:19.705Z,0.00
2019-03-22T02:12:19.452Z,0.00
2019-03-22T02:13:20.808Z,0.00
2019-03-22T02:14:19.396Z,0.00
2019-03-22T02:15:19.388Z,0.00
2019-03-22T02:16:19.379Z,0.00
2019-03-22T02:17:19.366Z,0.00
2019-03-22T02:18:19.734Z,0.00
2019-03-22T02:19:19.354Z,0.00
2019-03-22T02:20:19.381Z,0.00
2019-03-22T02:21:19.326Z,0.00
2019-03-22T02:22:19.316Z,0.00
2019-03-22T02:23:19.304Z,0.00
2019-03-22T02:24:19.354Z,0.00
2019-03-22T02:25:19.564Z,0.00
2019-03-22T02:26:19.271Z,0.00
2019-03-22T02:27:19.272Z,0.00
2019-03-22T02:28:19.254Z,0.00
2019-03-22T02:29:19.246Z,0.00
2019-03-22T02:30:19.282Z,0.00
2019-03-22T02:31:19.225Z,0.00
2019-03-22T02:32:19.508Z,0.00
2019-03-22T02:33:19.202Z,0.00
2019-03-22T02:34:19.190Z,0.00
2019-03-22T02:35:28.514Z,0.00
2019-03-22T02:36:20.198Z,0.00
2019-03-22T02:37:19.186Z,0.00
2019-03-22T02:38:19.202Z,0.00
2019-03-22T02:39:19.518Z,0.00
2019-03-22T02:40:19.145Z,0.00
2019-03-22T02:41:19.149Z,0.00
2019-03-22T02:42:19.182Z,0.00
2019-03-22T02:43:19.098Z,0.00
2019-03-22T02:44:19.087Z,0.00
2019-03-22T02:45:19.082Z,0.00
2019-03-22T02:46:19.348Z,0.00
2019-03-22T02:47:19.074Z,0.00
2019-03-22T02:48:19.079Z,0.00
2019-03-22T02:49:19.035Z,0.00
2019-03-22T02:50:19.973Z,0.00
2019-03-22T02:51:19.034Z,0.00
2019-03-22T02:52:19.010Z,0.00
2019-03-22T02:53:19.432Z,0.00
2019-03-22T02:54:19.014Z,0.00
2019-03-22T02:55:18.990Z,0.00
2019-03-22T02:56:18.962Z,0.00
2019-03-22T02:57:18.956Z,0.00
2019-03-22T02:58:21.049Z,0.00
2019-03-22T02:59:18.933Z,0.00
2019-03-22T03:02:06.975Z,0.00
2019-03-22T03:03:06.933Z,0.00
2019-03-22T03:04:06.909Z,0.00
2019-03-22T03:05:06.912Z,0.00
2019-03-22T03:06:06.883Z,0.00
2019-03-22T03:07:06.880Z,0.00
2019-03-22T03:08:07.001Z,0.00
2019-03-22T03:09:06.855Z,0.00
2019-03-22T03:10:06.854Z,0.00
2019-03-22T03:11:06.840Z,0.00
2019-03-22T03:12:06.832Z,0.00
2019-03-22T03:13:06.813Z,0.00
2019-03-22T03:14:07.130Z,0.00
2019-03-22T03:15:06.826Z,0.00
2019-03-22T03:16:06.800Z,0.00
2019-03-22T03:17:06.788Z,0.00
2019-03-22T03:18:06.768Z,0.00
2019-03-22T03:19:06.751Z,0.00
2019-03-22T03:20:06.826Z,0.00
2019-03-22T03:21:06.746Z,0.00
2019-03-22T03:22:06.720Z,0.00
2019-03-22T03:23:06.719Z,0.00
2019-03-22T03:24:06.715Z,0.00
2019-03-22T03:25:06.729Z,0.00
2019-03-22T03:26:07.031Z,0.00
2019-03-22T03:27:06.668Z,0.00
2019-03-22T03:28:06.660Z,0.00
2019-03-22T03:29:06.650Z,0.00
2019-03-22T03:30:06.654Z,0.00
2019-03-22T03:31:06.636Z,0.00
2019-03-22T03:32:06.676Z,0.00
2019-03-22T03:33:06.614Z,0.00
2019-03-22T03:34:06.636Z,0.00
2019-03-22T03:35:06.602Z,0.00
2019-03-22T03:36:06.575Z,0.00
2019-03-22T03:37:06.565Z,0.00
2019-03-22T03:38:06.899Z,0.00
2019-03-22T03:39:06.545Z,0.00
2019-03-22T03:40:06.533Z,0.00
2019-03-22T03:41:06.550Z,0.00
2019-03-22T03:42:06.508Z,0.00
2019-03-22T03:43:06.499Z,0.00
2019-03-22T03:44:06.529Z,0.00
2019-03-22T03:45:06.755Z,0.00
2019-03-22T03:46:06.471Z,0.00
2019-03-22T03:47:06.472Z,0.00
2019-03-22T03:48:06.456Z,0.00
2019-03-22T03:49:06.438Z,0.00
2019-03-22T03:50:06.469Z,0.00
2019-03-22T03:51:06.473Z,0.00
2019-03-22T03:52:06.689Z,0.00
2019-03-22T03:53:06.419Z,0.00
2019-03-22T03:54:06.385Z,0.00
2019-03-22T03:55:06.381Z,0.00
2019-03-22T03:56:06.469Z,0.00
2019-03-22T03:57:06.393Z,0.00
2019-03-22T03:58:06.344Z,0.00
2019-03-22T03:59:06.617Z,0.00
2019-03-22T04:00:06.337Z,0.00
2019-03-22T04:01:06.343Z,0.00
2019-03-22T04:02:06.350Z,0.00
2019-03-22T04:03:06.289Z,0.00
2019-03-22T04:04:06.283Z,0.00
2019-03-22T04:05:06.291Z,0.00
2019-03-22T04:06:06.538Z,0.00
2019-03-22T04:07:06.266Z,0.00
2019-03-22T04:08:06.370Z,0.00
2019-03-22T04:09:06.270Z,0.00
2019-03-22T04:10:06.230Z,0.00
2019-03-22T04:11:06.228Z,0.00
2019-03-22T04:12:06.205Z,0.00
2019-03-22T04:13:06.462Z,0.00
2019-03-22T04:14:06.250Z,0.00
2019-03-22T04:15:06.163Z,0.00
2019-03-22T04:16:06.153Z,0.00
2019-03-22T04:17:06.152Z,0.00
2019-03-22T04:18:06.133Z,0.00
2019-03-22T04:19:06.143Z,0.00
2019-03-22T04:20:06.692Z,0.00
2019-03-22T04:21:06.098Z,0.00
2019-03-22T04:22:06.168Z,0.00
2019-03-22T04:23:06.079Z,0.00
2019-03-22T04:24:06.085Z,0.00
2019-03-22T04:25:06.057Z,0.00
2019-03-22T04:26:06.089Z,0.00
2019-03-22T04:27:06.035Z,0.00
2019-03-22T04:28:06.025Z,0.00
2019-03-22T04:29:08.174Z,0.00
2019-03-22T04:30:06.014Z,0.00
2019-03-22T04:31:05.997Z,0.00
2019-03-22T04:32:06.763Z,0.00
2019-03-22T04:33:06.901Z,0.00
2019-03-22T04:34:05.964Z,0.00
2019-03-22T04:35:05.967Z,0.00
2019-03-22T04:36:05.941Z,0.00
2019-03-22T04:37:05.933Z,0.00
2019-03-22T04:38:06.843Z,0.00
2019-03-22T04:39:06.929Z,0.00
2019-03-22T04:40:05.898Z,0.00
2019-03-22T04:41:05.891Z,0.00
2019-03-22T04:42:05.878Z,0.00
2019-03-22T04:43:06.821Z,0.00
2019-03-22T04:44:06.179Z,0.00
2019-03-22T04:45:05.846Z,0.00
2019-03-22T04:46:05.838Z,0.00
2019-03-22T04:47:05.837Z,0.00
2019-03-22T04:48:05.819Z,0.00
2019-03-22T04:49:05.803Z,0.00
2019-03-22T04:50:06.082Z,0.00
2019-03-22T04:51:06.056Z,0.00
2019-03-22T04:52:05.768Z,0.00
2019-03-22T04:53:05.758Z,0.00
2019-03-22T04:54:05.772Z,0.00
2019-03-22T04:55:05.739Z,0.00
2019-03-22T04:56:05.780Z,0.00
2019-03-22T04:57:05.715Z,0.00
2019-03-22T04:58:05.720Z,0.00
2019-03-22T04:59:14.147Z,0.00
2019-03-22T05:00:06.687Z,0.00
2019-03-22T05:01:05.674Z,0.00
2019-03-22T05:02:05.968Z,0.00
2019-03-22T05:03:05.655Z,0.00
2019-03-22T05:04:05.640Z,0.00
2019-03-22T05:05:05.634Z,0.00
2019-03-22T05:06:05.621Z,0.00
2019-03-22T05:07:05.608Z,0.00
2019-03-22T05:08:05.668Z,0.00
2019-03-22T05:09:05.974Z,0.00
2019-03-22T05:10:05.577Z,0.00
2019-03-22T05:11:05.565Z,0.00
2019-03-22T05:12:05.556Z,0.00
2019-03-22T05:13:05.551Z,0.00
2019-03-22T05:14:05.567Z,0.00
2019-03-22T05:15:05.526Z,0.00
2019-03-22T05:16:05.849Z,0.00
2019-03-22T05:17:05.500Z,0.00
2019-03-22T05:18:05.521Z,0.00
2019-03-22T05:19:05.487Z,0.00
2019-03-22T05:20:05.503Z,0.00
2019-03-22T05:21:05.465Z,0.00
2019-03-22T05:22:05.456Z,0.00
2019-03-22T05:23:05.716Z,0.00
2019-03-22T05:24:05.474Z,0.00
2019-03-22T05:25:05.420Z,0.00
2019-03-22T05:26:05.500Z,0.00
2019-03-22T05:27:05.394Z,0.00
2019-03-22T05:28:05.392Z,0.00
2019-03-22T05:29:05.389Z,0.00
2019-03-22T05:30:05.362Z,5.62
2019-03-22T05:31:05.354Z,5.62
2019-03-22T05:32:05.384Z,5.62
2019-03-22T05:33:05.334Z,5.62
2019-03-22T05:34:05.367Z,5.62
2019-03-22T05:35:07.294Z,5.62
2019-03-22T05:36:05.631Z,5.62
2019-03-22T05:37:05.287Z,5.62
2019-03-22T05:38:05.303Z,5.62
2019-03-22T05:39:05.266Z,5.62
2019-03-22T05:40:05.275Z,11.25
2019-03-22T05:41:05.276Z,11.25
2019-03-22T05:42:05.240Z,11.25
2019-03-22T05:43:05.566Z,11.25
2019-03-22T05:44:05.267Z,11.25
2019-03-22T05:45:05.202Z,11.25
2019-03-22T05:46:05.200Z,11.25
2019-03-22T05:47:05.204Z,11.25
2019-03-22T05:48:05.171Z,16.88
2019-03-22T05:49:05.178Z,16.88
2019-03-22T05:50:05.518Z,16.88
2019-03-22T05:51:05.158Z,16.88
2019-03-22T05:52:05.126Z,16.88
2019-03-22T05:53:05.163Z,16.88
2019-03-22T05:54:05.173Z,16.88
2019-03-22T05:55:05.122Z,22.50
2019-03-22T05:56:05.187Z,22.50
2019-03-22T05:57:13.420Z,22.50
2019-03-22T05:58:06.061Z,22.50
2019-03-22T05:59:05.057Z,22.50
2019-03-22T06:00:05.106Z,22.50
2019-03-22T06:01:05.055Z,22.50
2019-03-22T06:02:05.269Z,28.12
2019-03-22T06:03:05.022Z,28.12
2019-03-22T06:04:05.366Z,28.12
2019-03-22T06:05:05.017Z,28.12
2019-03-22T06:06:04.980Z,28.12
2019-03-22T06:07:04.977Z,33.75
2019-03-22T06:08:06.806Z,33.75
2019-03-22T06:09:04.951Z,33.75
2019-03-22T06:10:05.846Z,33.75
2019-03-22T06:11:05.398Z,33.75
2019-03-22T06:12:04.923Z,39.38
2019-03-22T06:13:04.909Z,39.38
2019-03-22T06:14:05.041Z,39.38
2019-03-22T06:15:04.921Z,39.38
2019-03-22T06:16:04.873Z,39.38
2019-03-22T06:17:05.284Z,39.38
2019-03-22T06:18:05.301Z,45.00
2019-03-22T06:19:05.164Z,45.00
2019-03-22T06:20:05.095Z,45.00
2019-03-22T06:21:05.803Z,45.00
2019-03-22T06:22:04.827Z,45.00
2019-03-22T06:23:04.799Z,45.00
2019-03-22T06:24:04.815Z,50.62
2019-03-22T06:25:05.123Z,50.62
2019-03-22T06:26:04.909Z,50.62
2019-03-22T06:27:04.799Z,50.62
2019-03-22T06:28:04.746Z,50.62
2019-03-22T06:29:04.837Z,50.62
2019-03-22T06:30:04.740Z,56.25
2019-03-22T06:31:04.736Z,56.25
2019-03-22T06:32:04.845Z,56.25
2019-03-22T06:33:04.950Z,56.25
2019-03-22T06:34:04.703Z,56.25
2019-03-22T06:35:04.676Z,56.25
2019-03-22T06:36:04.667Z,56.25
2019-03-22T06:37:04.658Z,61.88
2019-03-22T06:38:05.136Z,61.88
2019-03-22T06:39:04.653Z,61.88
2019-03-22T06:40:04.626Z,61.88
2019-03-22T06:41:04.612Z,61.88
2019-03-22T06:42:04.671Z,61.88
2019-03-22T06:43:04.590Z,67.50
2019-03-22T06:44:04.707Z,67.50
2019-03-22T06:45:04.571Z,67.50
2019-03-22T06:46:04.562Z,67.50
2019-03-22T06:47:04.550Z,67.50
2019-03-22T06:48:04.540Z,73.12
2019-03-22T06:49:04.545Z,73.12
2019-03-22T06:50:04.735Z,73.12
2019-03-22T06:51:04.514Z,73.12
2019-03-22T06:52:04.519Z,73.12
2019-03-22T06:53:04.487Z,78.75
2019-03-22T06:54:04.475Z,78.75
2019-03-22T06:55:04.469Z,78.75
2019-03-22T06:56:04.603Z,78.75
2019-03-22T06:57:05.159Z,84.38
2019-03-22T06:58:04.489Z,90.00
2019-03-22T06:59:04.473Z,90.00
2019-03-22T07:00:06.808Z,95.62
2019-03-22T07:01:04.402Z,95.62
2019-03-22T07:02:04.511Z,101.25
2019-03-22T07:03:04.378Z,101.25
2019-03-22T07:04:04.381Z,106.88
2019-03-22T07:05:04.358Z,112.50
2019-03-22T07:06:04.349Z,112.50
2019-03-22T07:07:04.475Z,112.50
2019-03-22T07:08:04.362Z,106.88
2019-03-22T07:09:04.322Z,112.50
2019-03-22T07:10:04.301Z,118.12
2019-03-22T07:11:04.293Z,112.50
2019-03-22T07:12:04.284Z,112.50
2019-03-22T07:13:04.284Z,118.12
2019-03-22T07:14:04.401Z,123.75
2019-03-22T07:15:04.257Z,123.75
2019-03-22T07:16:04.240Z,123.75
2019-03-22T07:17:04.232Z,123.75
2019-03-22T07:18:04.247Z,123.75
2019-03-22T07:19:04.230Z,123.75
2019-03-22T07:20:04.397Z,135.00
2019-03-22T07:21:04.184Z,135.00
2019-03-22T07:22:04.174Z,129.38
2019-03-22T07:23:04.164Z,135.00
2019-03-22T07:24:04.154Z,146.25
2019-03-22T07:25:04.153Z,157.50
2019-03-22T07:26:05.337Z,163.12
2019-03-22T07:27:04.124Z,157.50
2019-03-22T07:28:04.148Z,163.12
2019-03-22T07:29:04.134Z,163.12
2019-03-22T07:30:17.674Z,163.12
2019-03-22T07:31:05.176Z,146.25
2019-03-22T07:32:04.090Z,151.88
2019-03-22T07:33:04.062Z,163.12
2019-03-22T07:34:04.047Z,163.12
2019-03-22T07:35:04.038Z,168.75
2019-03-22T07:36:04.130Z,174.38
2019-03-22T07:37:04.064Z,185.62
2019-03-22T07:38:04.352Z,185.62
2019-03-22T07:39:03.992Z,174.38
2019-03-22T07:40:04.081Z,196.88
2019-03-22T07:41:04.012Z,196.88
2019-03-22T07:42:04.003Z,208.12
2019-03-22T07:43:05.477Z,163.12
2019-03-22T07:44:03.940Z,180.00
2019-03-22T07:45:04.207Z,196.88
2019-03-22T07:46:03.931Z,191.25
2019-03-22T07:47:03.921Z,185.62
2019-03-22T07:48:03.905Z,208.12
2019-03-22T07:49:04.022Z,225.00
2019-03-22T07:50:03.886Z,258.75
2019-03-22T07:51:03.870Z,264.38
2019-03-22T07:52:04.291Z,270.00
2019-03-22T07:53:03.842Z,281.25
2019-03-22T07:54:04.948Z,286.88
2019-03-22T07:55:03.829Z,303.75
2019-03-22T07:56:03.809Z,315.00
2019-03-22T07:57:03.824Z,326.25
2019-03-22T07:58:03.796Z,376.88
2019-03-22T07:59:04.113Z,506.25
2019-03-22T08:00:03.898Z,635.62
2019-03-22T08:01:03.773Z,776.25
2019-03-22T08:02:03.765Z,911.25
2019-03-22T08:03:03.734Z,911.25
2019-03-22T08:04:03.731Z,748.12
2019-03-22T08:05:03.714Z,618.75
2019-03-22T08:06:04.354Z,534.38
2019-03-22T08:07:03.693Z,483.75
2019-03-22T08:08:03.685Z,450.00
2019-03-22T08:09:03.967Z,438.75
2019-03-22T08:10:03.723Z,421.88
2019-03-22T08:11:03.675Z,421.88
2019-03-22T08:12:03.983Z,416.25
2019-03-22T08:13:04.203Z,416.25
2019-03-22T08:14:03.755Z,427.50
2019-03-22T08:15:03.671Z,438.75
2019-03-22T08:16:03.651Z,427.50
2019-03-22T08:17:03.726Z,427.50
2019-03-22T08:18:03.686Z,410.62
2019-03-22T08:19:03.599Z,427.50
2019-03-22T08:20:03.925Z,410.62
2019-03-22T08:21:03.889Z,416.25
2019-03-22T08:22:03.551Z,421.88
2019-03-22T08:23:03.520Z,427.50
2019-03-22T08:24:04.357Z,466.88
2019-03-22T08:25:03.524Z,618.75
2019-03-22T08:26:03.532Z,736.88
2019-03-22T08:27:03.516Z,793.12
2019-03-22T08:28:03.478Z,871.88
2019-03-22T08:29:03.536Z,911.25
2019-03-22T08:30:03.656Z,939.38
2019-03-22T08:31:05.515Z,967.50
2019-03-22T08:32:03.432Z,978.75
2019-03-22T08:33:03.455Z,1006.88
2019-03-22T08:34:03.461Z,1012.50
2019-03-22T08:35:03.415Z,1040.62
2019-03-22T08:36:03.484Z,1046.25
2019-03-22T08:37:03.442Z,1057.50
2019-03-22T08:38:03.358Z,1091.25
2019-03-22T08:39:03.740Z,1091.25
2019-03-22T08:40:03.366Z,1136.25
2019-03-22T08:41:03.439Z,1136.25
2019-03-22T08:42:03.800Z,1096.88
2019-03-22T08:43:04.132Z,1023.75
2019-03-22T08:44:03.323Z,1023.75
2019-03-22T08:45:03.846Z,1136.25
2019-03-22T08:46:04.221Z,1158.75
2019-03-22T08:47:03.368Z,1153.12
2019-03-22T08:48:03.663Z,1113.75
2019-03-22T08:49:03.315Z,1080.00
2019-03-22T08:50:03.342Z,1018.12
2019-03-22T08:51:03.558Z,1035.00
2019-03-22T08:52:03.209Z,793.12
2019-03-22T08:53:03.224Z,478.12
2019-03-22T08:54:03.257Z,225.00
2019-03-22T08:55:03.189Z,191.25
2019-03-22T08:56:03.164Z,191.25
2019-03-22T08:57:03.168Z,191.25
2019-03-22T08:58:03.140Z,185.62
2019-03-22T08:59:03.408Z,185.62
2019-03-22T09:00:04.065Z,185.62
2019-03-22T09:01:03.138Z,185.62
2019-03-22T09:02:03.127Z,185.62
2019-03-22T09:03:03.093Z,185.62
2019-03-22T09:04:03.092Z,185.62
2019-03-22T09:05:03.160Z,180.00
2019-03-22T09:06:03.162Z,180.00
2019-03-22T09:07:03.172Z,180.00
2019-03-22T09:08:03.034Z,185.62
2019-03-22T09:09:03.830Z,185.62
2019-03-22T09:10:03.016Z,185.62
2019-03-22T09:11:03.318Z,185.62
2019-03-22T09:12:03.107Z,185.62
2019-03-22T09:13:02.997Z,185.62
2019-03-22T09:14:02.983Z,185.62
2019-03-22T09:15:02.966Z,185.62
2019-03-22T09:16:02.963Z,185.62
2019-03-22T09:17:03.121Z,185.62
2019-03-22T09:18:03.061Z,185.62
2019-03-22T09:19:02.963Z,191.25
2019-03-22T09:20:02.963Z,191.25
2019-03-22T09:21:02.985Z,191.25
2019-03-22T09:22:02.972Z,191.25
2019-03-22T09:23:03.796Z,185.62
2019-03-22T09:24:02.954Z,191.25
2019-03-22T09:25:02.857Z,185.62
2019-03-22T09:26:02.861Z,185.62
2019-03-22T09:27:02.970Z,185.62
2019-03-22T09:28:03.079Z,185.62
2019-03-22T09:29:03.203Z,185.62
2019-03-22T09:30:02.885Z,185.62
2019-03-22T09:31:10.288Z,185.62
2019-03-22T09:32:03.873Z,185.62
2019-03-22T09:33:02.769Z,185.62
2019-03-22T09:34:02.773Z,191.25
2019-03-22T09:35:02.743Z,185.62
2019-03-22T09:36:03.205Z,185.62
2019-03-22T09:37:02.725Z,185.62
2019-03-22T09:38:12.361Z,191.25
2019-03-22T09:39:03.740Z,191.25
2019-03-22T09:40:02.700Z,185.62
2019-03-22T09:41:02.782Z,185.62
2019-03-22T09:42:02.736Z,191.25
2019-03-22T09:43:03.059Z,191.25
2019-03-22T09:44:02.704Z,185.62
2019-03-22T09:45:02.662Z,191.25
2019-03-22T09:46:02.674Z,191.25
2019-03-22T09:47:02.627Z,196.88
2019-03-22T09:48:02.776Z,196.88
2019-03-22T09:49:02.657Z,196.88
2019-03-22T09:50:02.985Z,196.88
2019-03-22T09:51:02.573Z,196.88
2019-03-22T09:52:02.569Z,196.88
2019-03-22T09:53:02.673Z,196.88
2019-03-22T09:54:02.734Z,196.88
2019-03-22T09:55:12.746Z,202.50
2019-03-22T09:56:03.517Z,202.50
2019-03-22T09:57:02.992Z,202.50
2019-03-22T09:58:02.508Z,202.50
2019-03-22T09:59:02.533Z,196.88
2019-03-22T10:00:03.092Z,202.50
2019-03-22T10:01:02.575Z,202.50
2019-03-22T10:02:02.542Z,202.50
2019-03-22T10:03:02.612Z,202.50
2019-03-22T10:04:02.820Z,202.50
2019-03-22T10:05:02.414Z,202.50
2019-03-22T10:06:02.496Z,202.50
2019-03-22T10:07:02.406Z,202.50
2019-03-22T10:08:02.398Z,208.12
2019-03-22T10:09:05.344Z,208.12
2019-03-22T10:10:02.390Z,208.12
2019-03-22T10:11:03.045Z,208.12
2019-03-22T10:12:02.472Z,208.12
2019-03-22T10:13:02.534Z,208.12
2019-03-22T10:14:02.398Z,208.12
2019-03-22T10:15:02.384Z,208.12
2019-03-22T10:16:02.855Z,208.12
2019-03-22T10:17:02.569Z,208.12
2019-03-22T10:18:03.152Z,208.12
2019-03-22T10:19:02.268Z,213.75
2019-03-22T10:20:02.458Z,208.12
2019-03-22T10:21:02.796Z,213.75
2019-03-22T10:22:03.310Z,208.12
2019-03-22T10:23:02.515Z,213.75
2019-03-22T10:24:02.791Z,213.75
2019-03-22T10:25:02.726Z,213.75
2019-03-22T10:26:02.515Z,213.75
2019-03-22T10:27:05.102Z,213.75
2019-03-22T10:28:06.582Z,213.75
2019-03-22T10:29:02.255Z,213.75
2019-03-22T10:30:02.306Z,213.75
2019-03-22T10:31:02.224Z,213.75
2019-03-22T10:32:02.151Z,213.75
2019-03-22T10:33:02.186Z,213.75
2019-03-22T10:34:02.217Z,219.38
2019-03-22T10:35:02.137Z,219.38
2019-03-22T10:36:02.301Z,219.38
2019-03-22T10:37:02.135Z,225.00
2019-03-22T10:38:04.763Z,225.00
2019-03-22T10:39:02.216Z,230.62
2019-03-22T10:40:02.321Z,230.62
2019-03-22T10:41:02.044Z,236.25
2019-03-22T10:42:02.262Z,264.38
2019-03-22T10:43:03.609Z,720.00
2019-03-22T10:44:02.467Z,1445.62
2019-03-22T10:45:02.194Z,1845.00
2019-03-22T10:46:02.037Z,1884.38
2019-03-22T10:47:01.983Z,1839.38
2019-03-22T10:48:03.384Z,1811.25
2019-03-22T10:49:02.046Z,1861.88
2019-03-22T10:50:02.123Z,1901.25
2019-03-22T10:51:02.193Z,1935.00
2019-03-22T10:52:04.488Z,2019.38
2019-03-22T10:53:01.931Z,1968.75
2019-03-22T10:54:01.971Z,1991.25
2019-03-22T10:55:17.378Z,2041.88
2019-03-22T10:56:02.960Z,2081.25
2019-03-22T10:57:01.855Z,2013.75
2019-03-22T10:58:01.906Z,2053.12
2019-03-22T10:59:02.239Z,2025.00
2019-03-22T11:00:02.043Z,1968.75
2019-03-22T11:01:02.789Z,2008.12
2019-03-22T11:02:03.591Z,2013.75
2019-03-22T11:03:01.812Z,1968.75
2019-03-22T11:04:01.966Z,1946.25
2019-03-22T11:05:02.308Z,2064.38
2019-03-22T11:06:02.340Z,2030.62
2019-03-22T11:07:01.912Z,1890.00
2019-03-22T11:08:02.236Z,1867.50
2019-03-22T11:09:01.940Z,1935.00
2019-03-22T11:10:02.013Z,2041.88
2019-03-22T11:11:01.721Z,2013.75
2019-03-22T11:12:11.736Z,1957.50
2019-03-22T11:13:02.889Z,2025.00
2019-03-22T11:14:01.852Z,2131.88
2019-03-22T11:15:02.563Z,2103.75
2019-03-22T11:16:02.807Z,2064.38
2019-03-22T11:17:01.650Z,2109.38
2019-03-22T11:18:01.725Z,2115.00
2019-03-22T11:19:01.632Z,2115.00
2019-03-22T11:20:01.716Z,2115.00
2019-03-22T11:21:05.381Z,2092.50
2019-03-22T11:22:02.799Z,2131.88
2019-03-22T11:23:01.745Z,2160.00
2019-03-22T11:24:01.801Z,2160.00
2019-03-22T11:25:01.586Z,2109.38
2019-03-22T11:26:04.323Z,2086.88
2019-03-22T11:27:01.551Z,2081.25
2019-03-22T11:28:01.545Z,2086.88
2019-03-22T11:29:01.992Z,2092.50
2019-03-22T11:30:01.572Z,2070.00
2019-03-22T11:31:05.058Z,2081.25
2019-03-22T11:32:01.795Z,2064.38
2019-03-22T11:33:01.493Z,2025.00
2019-03-22T11:34:01.498Z,1985.62
2019-03-22T11:35:01.473Z,1935.00
2019-03-22T11:36:01.852Z,2013.75
2019-03-22T11:37:01.528Z,2131.88
2019-03-22T11:38:01.554Z,2193.75
2019-03-22T11:39:01.468Z,2188.12
2019-03-22T11:40:01.594Z,2193.75
2019-03-22T11:41:01.451Z,2205.00
2019-03-22T11:42:02.564Z,2188.12
2019-03-22T11:43:08.621Z,2098.12
2019-03-22T11:44:02.430Z,2047.50
2019-03-22T11:45:01.591Z,1968.75
2019-03-22T11:46:01.503Z,1951.88
2019-03-22T11:47:01.346Z,2058.75
2019-03-22T11:48:01.499Z,2098.12
2019-03-22T11:49:01.899Z,2053.12
2019-03-22T11:50:01.320Z,2030.62
2019-03-22T11:51:04.339Z,2002.50
2019-03-22T11:52:02.813Z,2103.75
2019-03-22T11:53:01.295Z,2199.38
2019-03-22T11:54:01.634Z,2233.12
2019-03-22T11:55:01.270Z,2238.75
2019-03-22T11:56:01.334Z,2250.00
2019-03-22T11:57:01.250Z,2205.00
2019-03-22T11:58:01.443Z,2278.12
2019-03-22T11:59:01.240Z,2295.00
2019-03-22T12:00:01.379Z,2295.00
2019-03-22T12:01:01.241Z,2295.00
2019-03-22T12:02:01.232Z,2244.38
2019-03-22T12:03:01.568Z,2221.88
2019-03-22T12:04:01.429Z,2216.25
2019-03-22T12:05:01.221Z,2250.00
2019-03-22T12:06:01.485Z,2216.25
2019-03-22T12:07:01.163Z,2205.00
2019-03-22T12:08:01.160Z,2289.38
2019-03-22T12:09:01.136Z,2289.38
2019-03-22T12:10:01.139Z,2244.38
2019-03-22T12:11:01.149Z,2244.38
2019-03-22T12:12:01.834Z,2221.88
2019-03-22T12:13:01.097Z,2250.00
2019-03-22T12:14:01.512Z,2373.75
2019-03-22T12:15:01.470Z,2311.88
2019-03-22T12:16:01.096Z,2272.50
2019-03-22T12:17:01.444Z,2255.62
2019-03-22T12:18:01.459Z,2227.50
2019-03-22T12:19:01.239Z,2250.00
2019-03-22T12:20:02.065Z,2300.62
2019-03-22T12:21:01.052Z,2356.88
2019-03-22T12:22:07.516Z,2261.25
2019-03-22T12:23:13.443Z,2205.00
2019-03-22T12:24:09.900Z,2221.88
2019-03-22T12:25:07.361Z,2199.38
2019-03-22T12:26:01.185Z,2216.25
2019-03-22T12:27:01.645Z,2182.50
2019-03-22T12:28:00.972Z,2188.12
2019-03-22T12:29:00.996Z,2120.62
2019-03-22T12:30:01.023Z,2070.00
2019-03-22T12:31:00.927Z,2019.38
2019-03-22T12:32:00.945Z,1940.62
2019-03-22T12:33:00.923Z,1878.75
2019-03-22T12:34:00.967Z,1828.12
2019-03-22T12:35:00.955Z,1794.38
2019-03-22T12:36:01.820Z,1800.00
2019-03-22T12:37:00.903Z,1794.38
2019-03-22T12:38:01.204Z,1856.25
2019-03-22T12:39:00.859Z,1946.25
2019-03-22T12:40:00.993Z,1901.25
2019-03-22T12:41:00.918Z,1732.50
2019-03-22T12:42:01.815Z,1687.50
2019-03-22T12:43:01.011Z,1839.38
2019-03-22T12:44:00.808Z,1951.88
2019-03-22T12:45:00.809Z,1963.12
2019-03-22T12:46:00.782Z,1996.88
2019-03-22T12:47:01.015Z,2002.50
2019-03-22T12:48:00.759Z,1895.62
2019-03-22T12:49:00.765Z,1873.12